createdAt,value
2022-11-29T00:00:49.252Z,99.56
2022-11-29T00:03:16.428Z,99.40
2022-11-29T00:05:42.933Z,99.37
2022-11-29T00:08:09.405Z,99.53
2022-11-29T00:10:37.403Z,99.67
2022-11-29T00:13:04.406Z,99.36
2022-11-29T00:15:34.949Z,99.49
2022-11-29T00:18:01.397Z,99.54
2022-11-29T00:20:27.793Z,99.53
2022-11-29T00:22:54.187Z,99.50
2022-11-29T00:25:20.623Z,99.64
2022-11-29T00:27:47.107Z,99.64
2022-11-29T00:30:14.108Z,99.38
2022-11-29T00:32:40.530Z,99.33
2022-11-29T00:35:09.807Z,99.24
2022-11-29T00:37:36.889Z,99.39
2022-11-29T00:40:04.632Z,99.32
2022-11-29T00:42:31.125Z,99.38
2022-11-29T00:44:57.678Z,99.24
2022-11-29T00:47:24.136Z,99.58
2022-11-29T00:49:50.608Z,99.27
2022-11-29T00:52:16.977Z,99.05
2022-11-29T00:54:43.843Z,99.18
2022-11-29T00:57:10.397Z,98.76
2022-11-29T00:59:36.832Z,99.22
2022-11-29T01:02:03.251Z,99.18
2022-11-29T01:04:29.692Z,99.16
2022-11-29T01:06:56.120Z,98.88
2022-11-29T01:09:22.540Z,98.99
2022-11-29T01:11:49.610Z,99.27
2022-11-29T01:14:16.385Z,99.14
2022-11-29T01:16:42.840Z,99.23
2022-11-29T01:19:09.305Z,99.03
2022-11-29T01:21:35.846Z,99.31
2022-11-29T01:24:02.720Z,98.99
2022-11-29T01:26:30.921Z,99.19
2022-11-29T01:28:59.087Z,99.09
2022-11-29T01:31:31.686Z,99.10
2022-11-29T01:34:00.807Z,98.94
2022-11-29T01:36:27.585Z,99.25
2022-11-29T01:38:54.023Z,99.39
2022-11-29T01:41:23.729Z,99.35
2022-11-29T01:44:26.913Z,99.39
2022-11-29T01:46:54.618Z,99.08
2022-11-29T01:49:41.081Z,99.16
2022-11-29T01:52:19.293Z,99.34
2022-11-29T01:54:51.081Z,99.54
2022-11-29T01:57:19.230Z,99.44
2022-11-29T01:59:49.630Z,99.33
2022-11-29T02:02:22.000Z,99.74
2022-11-29T02:04:49.549Z,99.56
2022-11-29T02:07:16.443Z,99.63
2022-11-29T02:09:42.968Z,99.50
2022-11-29T02:12:27.896Z,99.32
2022-11-29T02:15:09.869Z,99.60
2022-11-29T02:17:52.335Z,99.33
2022-11-29T02:20:49.561Z,99.61
2022-11-29T02:23:48.145Z,99.74
2022-11-29T02:26:20.616Z,99.50
2022-11-29T02:29:11.676Z,99.56
2022-11-29T02:31:50.333Z,99.66
2022-11-29T02:34:54.338Z,99.49
2022-11-29T02:37:27.423Z,99.35
2022-11-29T02:39:59.772Z,99.89
2022-11-29T02:42:56.548Z,99.67
2022-11-29T02:45:34.673Z,99.68
2022-11-29T02:48:23.313Z,99.82
2022-11-29T02:51:05.647Z,99.92
2022-11-29T02:53:56.382Z,100.00
2022-11-29T02:56:34.325Z,100.00
2022-11-29T02:59:27.172Z,100.00
2022-11-29T03:02:11.721Z,99.99
2022-11-29T03:04:47.526Z,99.92
2022-11-29T03:07:43.463Z,99.76
2022-11-29T03:10:17.829Z,99.86
2022-11-29T03:12:53.329Z,99.83
2022-11-29T03:15:29.049Z,99.70
2022-11-29T03:17:58.487Z,100.00
2022-11-29T03:20:46.098Z,99.83
2022-11-29T03:23:28.460Z,99.80
2022-11-29T03:26:07.430Z,99.72
2022-11-29T03:28:43.084Z,100.00
2022-11-29T03:31:34.213Z,99.86
2022-11-29T03:34:15.814Z,100.00
2022-11-29T03:37:06.180Z,99.96
2022-11-29T03:39:57.391Z,99.79
2022-11-29T03:42:31.352Z,100.00
2022-11-29T03:45:34.743Z,100.00
2022-11-29T03:48:07.200Z,100.00
2022-11-29T03:50:41.582Z,100.00
2022-11-29T03:53:19.726Z,100.00
2022-11-29T03:55:52.384Z,99.90
2022-11-29T03:58:32.308Z,100.00
2022-11-29T04:01:11.178Z,99.86
2022-11-29T04:03:59.352Z,100.00
2022-11-29T04:06:28.769Z,99.97
2022-11-29T04:09:08.956Z,100.00
2022-11-29T04:11:58.800Z,100.00
2022-11-29T04:14:41.295Z,99.84
2022-11-29T04:17:35.278Z,100.00
2022-11-29T04:20:40.377Z,100.00
2022-11-29T04:23:32.457Z,100.00
2022-11-29T04:26:09.198Z,100.00
2022-11-29T04:28:59.891Z,100.00
2022-11-29T04:31:32.411Z,100.00
2022-11-29T04:33:58.808Z,100.00
2022-11-29T04:36:57.074Z,100.00
2022-11-29T04:39:41.728Z,100.00
2022-11-29T04:42:23.000Z,100.00
2022-11-29T04:44:59.029Z,100.00
2022-11-29T04:47:46.393Z,100.00
2022-11-29T04:50:37.424Z,100.00
2022-11-29T04:53:13.011Z,100.00
2022-11-29T04:55:52.395Z,100.00
2022-11-29T04:58:27.261Z,100.00
2022-11-29T05:01:00.858Z,100.00
2022-11-29T05:03:44.889Z,100.00
2022-11-29T05:06:19.611Z,100.00
2022-11-29T05:08:52.484Z,100.00
2022-11-29T05:11:37.209Z,100.00
2022-11-29T05:14:37.613Z,99.97
2022-11-29T05:17:03.968Z,100.00
2022-11-29T05:19:55.472Z,100.00
2022-11-29T05:22:29.131Z,100.00
2022-11-29T05:25:02.316Z,100.00
2022-11-29T05:27:48.698Z,100.00
2022-11-29T05:30:21.177Z,100.00
2022-11-29T05:33:09.579Z,100.00
2022-11-29T05:35:53.365Z,99.72
2022-11-29T05:38:29.084Z,99.74
2022-11-29T05:41:13.776Z,99.84
2022-11-29T05:44:14.284Z,99.76
2022-11-29T05:46:56.802Z,99.74
2022-11-29T05:49:32.465Z,99.64
2022-11-29T05:52:17.572Z,99.59
2022-11-29T05:55:05.893Z,99.95
2022-11-29T05:57:46.668Z,99.90
2022-11-29T06:00:14.797Z,99.48
2022-11-29T06:02:54.005Z,99.52
2022-11-29T06:05:31.737Z,99.68
2022-11-29T06:08:05.203Z,99.40
2022-11-29T06:10:36.220Z,99.63
2022-11-29T06:13:29.443Z,99.55
2022-11-29T06:16:14.149Z,99.66
2022-11-29T06:18:46.537Z,99.52
2022-11-29T06:21:26.448Z,99.47
2022-11-29T06:24:25.863Z,99.64
2022-11-29T06:27:13.738Z,99.80
2022-11-29T06:30:01.831Z,99.79
2022-11-29T06:32:54.512Z,100.00
2022-11-29T06:35:29.716Z,100.00
2022-11-29T06:37:58.429Z,99.50
2022-11-29T06:40:25.354Z,99.58
2022-11-29T06:42:51.964Z,99.59
2022-11-29T06:45:18.794Z,99.72
2022-11-29T06:48:06.808Z,99.56
2022-11-29T06:50:36.168Z,99.42
2022-11-29T06:53:16.321Z,99.53
2022-11-29T06:56:06.424Z,99.67
2022-11-29T06:58:42.885Z,99.44
2022-11-29T07:01:18.335Z,99.43
2022-11-29T07:03:50.741Z,99.58
2022-11-29T07:06:28.562Z,99.39
2022-11-29T07:09:24.281Z,98.94
2022-11-29T07:11:50.908Z,99.00
2022-11-29T07:14:17.538Z,98.94
2022-11-29T07:17:12.526Z,99.05
2022-11-29T07:19:52.665Z,99.22
2022-11-29T07:22:47.960Z,99.35
2022-11-29T07:25:20.340Z,98.91
2022-11-29T07:27:49.672Z,99.18
2022-11-29T07:30:20.633Z,99.05
2022-11-29T07:33:08.880Z,99.05
2022-11-29T07:35:40.942Z,98.86
2022-11-29T07:38:21.440Z,99.05
2022-11-29T07:40:56.936Z,98.57
2022-11-29T07:43:45.340Z,98.81
2022-11-29T07:46:11.800Z,98.65
2022-11-29T07:48:38.260Z,98.23
2022-11-29T07:51:04.723Z,98.17
2022-11-29T07:53:31.239Z,98.24
2022-11-29T07:55:58.416Z,98.56
2022-11-29T07:58:25.151Z,98.72
2022-11-29T08:00:51.593Z,98.27
2022-11-29T08:03:18.071Z,97.96
2022-11-29T08:05:47.941Z,97.64
2022-11-29T08:08:15.430Z,97.94
2022-11-29T08:10:41.841Z,98.25
2022-11-29T08:13:08.231Z,98.29
2022-11-29T08:15:35.059Z,98.13
2022-11-29T08:18:02.725Z,98.21
2022-11-29T08:20:29.110Z,98.04
2022-11-29T08:22:59.563Z,98.08
2022-11-29T08:25:27.646Z,98.00
2022-11-29T08:27:54.743Z,97.92
2022-11-29T08:30:24.716Z,97.94
2022-11-29T08:32:52.167Z,98.24
2022-11-29T08:35:21.016Z,98.38
2022-11-29T08:37:50.279Z,98.01
2022-11-29T08:40:18.008Z,98.06
2022-11-29T08:42:44.510Z,97.90
2022-11-29T08:45:11.877Z,97.57
2022-11-29T08:47:40.205Z,97.89
2022-11-29T08:50:08.379Z,97.81
2022-11-29T08:52:55.508Z,97.56
2022-11-29T08:55:24.908Z,97.71
2022-11-29T08:57:52.058Z,97.64
2022-11-29T09:00:21.186Z,97.61
2022-11-29T09:02:48.748Z,97.08
2022-11-29T09:05:15.913Z,97.12
2022-11-29T09:07:43.593Z,97.35
2022-11-29T09:10:11.212Z,97.65
2022-11-29T09:12:39.119Z,97.89
2022-11-29T09:15:07.771Z,97.86
2022-11-29T09:17:34.249Z,97.33
2022-11-29T09:20:00.945Z,97.69
2022-11-29T09:22:27.535Z,97.51
2022-11-29T09:24:53.942Z,97.19
2022-11-29T09:27:20.341Z,97.78
2022-11-29T09:29:47.007Z,97.83
2022-11-29T09:32:13.457Z,97.41
2022-11-29T09:34:42.128Z,97.55
2022-11-29T09:37:08.720Z,97.00
2022-11-29T09:39:35.174Z,97.26
2022-11-29T09:42:17.117Z,97.44
2022-11-29T09:44:43.630Z,96.89
2022-11-29T09:47:22.361Z,97.08
2022-11-29T09:50:03.859Z,96.93
2022-11-29T09:52:42.425Z,97.10
2022-11-29T09:55:27.686Z,96.75
2022-11-29T09:57:58.173Z,96.87
2022-11-29T10:00:25.998Z,96.72
2022-11-29T10:03:03.239Z,96.85
2022-11-29T10:05:41.507Z,96.79
2022-11-29T10:08:25.992Z,96.51
2022-11-29T10:11:06.808Z,96.88
2022-11-29T10:13:35.533Z,96.72
2022-11-29T10:16:23.734Z,96.75
2022-11-29T10:18:58.725Z,96.78
2022-11-29T10:21:32.473Z,96.57
2022-11-29T10:24:04.885Z,96.33
2022-11-29T10:26:35.217Z,96.93
2022-11-29T10:29:02.482Z,96.71
2022-11-29T10:31:34.889Z,97.12
2022-11-29T10:34:11.711Z,97.15
2022-11-29T10:36:55.085Z,96.85
2022-11-29T10:39:28.672Z,97.32
2022-11-29T10:41:57.929Z,97.02
2022-11-29T10:44:25.297Z,96.99
2022-11-29T10:46:53.147Z,97.18
2022-11-29T10:49:23.568Z,97.07
2022-11-29T10:51:50.005Z,96.83
2022-11-29T10:54:38.308Z,97.38
2022-11-29T10:57:13.174Z,97.79
2022-11-29T10:59:39.698Z,97.43
2022-11-29T11:02:18.739Z,97.13
2022-11-29T11:04:48.061Z,97.03
2022-11-29T11:07:35.540Z,96.71
2022-11-29T11:10:05.625Z,97.03
2022-11-29T11:12:34.798Z,96.81
2022-11-29T11:15:26.618Z,96.22
2022-11-29T11:17:59.315Z,95.50
2022-11-29T11:20:28.827Z,95.82
2022-11-29T11:23:02.090Z,95.96
2022-11-29T11:25:35.233Z,96.16
2022-11-29T11:28:13.600Z,95.92
2022-11-29T11:30:40.242Z,96.01
2022-11-29T11:33:20.658Z,95.83
2022-11-29T11:36:08.806Z,95.95
2022-11-29T11:38:40.896Z,96.05
2022-11-29T11:41:18.757Z,95.67
2022-11-29T11:43:56.178Z,95.20
2022-11-29T11:46:22.908Z,95.40
2022-11-29T11:48:51.250Z,94.65
2022-11-29T11:51:24.690Z,95.22
2022-11-29T11:53:56.152Z,95.48
2022-11-29T11:56:24.181Z,95.71
2022-11-29T11:58:54.430Z,95.66
2022-11-29T12:01:37.280Z,95.74
2022-11-29T12:04:11.432Z,95.66
2022-11-29T12:06:46.606Z,95.56
2022-11-29T12:09:42.290Z,96.35
2022-11-29T12:12:25.968Z,95.94
2022-11-29T12:15:28.741Z,96.19
2022-11-29T12:18:04.465Z,95.81
2022-11-29T12:20:36.966Z,95.60
2022-11-29T12:23:23.903Z,95.26
2022-11-29T12:26:48.932Z,95.39
2022-11-29T12:29:20.072Z,95.60
2022-11-29T12:31:55.737Z,95.31
2022-11-29T12:34:43.186Z,95.36
2022-11-29T12:37:29.099Z,95.51
2022-11-29T12:40:22.502Z,95.75
2022-11-29T12:42:55.002Z,96.16
2022-11-29T12:45:40.582Z,95.41
2022-11-29T12:48:16.233Z,95.18
2022-11-29T12:50:52.162Z,95.57
2022-11-29T12:53:31.263Z,95.59
2022-11-29T12:56:18.825Z,94.78
2022-11-29T12:59:01.145Z,94.90
2022-11-29T13:02:19.859Z,94.14
2022-11-29T13:04:59.577Z,94.24
2022-11-29T13:08:05.069Z,94.88
2022-11-29T13:10:55.725Z,94.76
2022-11-29T13:13:36.167Z,93.79
2022-11-29T13:16:30.797Z,93.95
2022-11-29T13:18:57.654Z,94.06
2022-11-29T13:21:51.220Z,93.33
2022-11-29T13:24:30.765Z,94.22
2022-11-29T13:26:58.154Z,94.45
2022-11-29T13:29:26.050Z,94.25
2022-11-29T13:31:52.816Z,94.59
2022-11-29T13:34:29.617Z,94.60
2022-11-29T13:37:15.381Z,94.89
2022-11-29T13:39:52.033Z,94.88
2022-11-29T13:42:38.911Z,94.93
2022-11-29T13:45:31.577Z,95.11
2022-11-29T13:48:00.318Z,95.25
2022-11-29T13:50:43.786Z,95.21
2022-11-29T13:53:19.253Z,96.18
2022-11-29T13:56:02.460Z,95.81
2022-11-29T13:58:28.827Z,95.71
2022-11-29T14:01:09.405Z,95.52
2022-11-29T14:03:44.977Z,95.01
2022-11-29T14:06:21.048Z,95.38
2022-11-29T14:11:42.749Z,95.96
2022-11-29T14:14:17.808Z,95.83
2022-11-29T14:16:44.127Z,95.80
2022-11-29T14:19:10.547Z,95.75
2022-11-29T14:22:01.797Z,96.42
2022-11-29T14:24:37.704Z,95.98
2022-11-29T14:27:10.187Z,95.40
2022-11-29T14:29:48.814Z,95.61
2022-11-29T14:32:23.637Z,95.41
2022-11-29T14:35:11.313Z,96.03
2022-11-29T14:37:43.823Z,96.24
2022-11-29T14:40:40.424Z,95.99
2022-11-29T14:43:24.761Z,96.05
2022-11-29T14:46:15.565Z,96.05
2022-11-29T14:48:47.090Z,95.83
2022-11-29T14:51:19.197Z,96.02
2022-11-29T14:53:50.973Z,96.97
2022-11-29T14:56:29.731Z,96.85
2022-11-29T14:59:33.603Z,96.87
2022-11-29T15:02:04.970Z,97.09
2022-11-29T15:04:35.163Z,96.71
2022-11-29T15:07:03.530Z,97.21
2022-11-29T15:09:33.449Z,97.16
2022-11-29T15:12:07.871Z,97.08
2022-11-29T15:14:51.391Z,96.89
2022-11-29T15:17:40.642Z,97.33
2022-11-29T15:20:48.317Z,97.22
2022-11-29T15:23:18.458Z,97.26
2022-11-29T15:25:52.463Z,97.39
2022-11-29T15:28:27.558Z,97.42
2022-11-29T15:31:05.168Z,97.74
2022-11-29T15:33:34.215Z,98.00
2022-11-29T15:36:06.981Z,97.77
2022-11-29T15:38:53.964Z,98.29
2022-11-29T15:41:34.389Z,97.95
2022-11-29T15:44:04.829Z,97.80
2022-11-29T15:46:33.414Z,97.53
2022-11-29T15:49:16.266Z,97.31
2022-11-29T15:51:42.722Z,97.20
2022-11-29T15:54:21.025Z,97.29
2022-11-29T15:56:56.229Z,97.10
2022-11-29T15:59:38.884Z,96.93
2022-11-29T16:02:26.303Z,96.80
2022-11-29T16:04:59.842Z,96.63
2022-11-29T16:07:32.054Z,96.25
2022-11-29T16:10:04.025Z,96.74
2022-11-29T16:12:30.630Z,96.57
2022-11-29T16:14:59.422Z,96.76
2022-11-29T16:17:35.216Z,96.57
2022-11-29T16:20:13.747Z,96.40
2022-11-29T16:22:40.429Z,96.64
2022-11-29T16:25:16.985Z,96.55
2022-11-29T16:27:43.672Z,96.30
2022-11-29T16:30:27.823Z,96.30
2022-11-29T16:32:58.140Z,96.24
2022-11-29T16:35:27.921Z,96.40
2022-11-29T16:37:55.520Z,96.52
2022-11-29T16:40:32.068Z,96.22
2022-11-29T16:43:04.625Z,96.39
2022-11-29T16:45:36.657Z,97.36
2022-11-29T16:48:27.672Z,97.66
2022-11-29T16:51:15.107Z,97.40
2022-11-29T16:53:43.804Z,97.18
2022-11-29T16:56:12.483Z,97.05
2022-11-29T16:59:21.095Z,97.13
2022-11-29T17:01:28.585Z,97.17
2022-11-29T17:03:57.569Z,97.37
2022-11-29T17:06:25.362Z,97.19
2022-11-29T17:08:53.373Z,97.53
2022-11-29T17:11:20.169Z,97.38
2022-11-29T17:13:47.525Z,97.21
2022-11-29T17:16:16.139Z,97.57
2022-11-29T17:18:43.449Z,97.91
2022-11-29T17:21:17.594Z,97.58
2022-11-29T17:23:44.039Z,97.79
2022-11-29T17:26:10.492Z,97.92
2022-11-29T17:28:36.945Z,97.58
2022-11-29T17:31:10.482Z,97.61
2022-11-29T17:33:36.941Z,97.81
2022-11-29T17:36:08.135Z,98.04
2022-11-29T17:38:35.283Z,97.93
2022-11-29T17:41:09.355Z,98.01
2022-11-29T17:43:36.540Z,98.04
2022-11-29T17:46:17.119Z,98.08
2022-11-29T17:48:46.238Z,97.75
2022-11-29T17:51:50.161Z,97.84
2022-11-29T17:54:05.222Z,97.91
2022-11-29T17:56:32.176Z,97.70
2022-11-29T17:59:00.766Z,97.95
2022-11-29T18:01:30.718Z,98.17
2022-11-29T18:03:59.802Z,97.83
2022-11-29T18:06:29.386Z,98.12
2022-11-29T18:08:58.477Z,98.00
2022-11-29T18:11:45.304Z,97.85
2022-11-29T18:14:17.084Z,97.59
2022-11-29T18:16:45.415Z,97.76
2022-11-29T18:19:14.911Z,97.63
2022-11-29T18:21:41.414Z,97.33
2022-11-29T18:24:09.726Z,97.37
2022-11-29T18:26:38.113Z,96.99
2022-11-29T18:29:06.139Z,97.42
2022-11-29T18:31:34.871Z,96.94
2022-11-29T18:34:03.247Z,96.75
2022-11-29T18:36:33.211Z,97.12
2022-11-29T18:39:03.462Z,97.15
2022-11-29T18:41:30.952Z,96.79
2022-11-29T18:44:08.141Z,97.26
2022-11-29T18:46:37.239Z,97.12
2022-11-29T18:49:06.150Z,97.21
2022-11-29T18:51:33.329Z,97.29
2022-11-29T18:54:00.649Z,97.12
2022-11-29T18:56:29.481Z,96.87
2022-11-29T18:58:58.832Z,96.81
2022-11-29T19:01:27.534Z,97.08
2022-11-29T19:03:57.039Z,96.84
2022-11-29T19:06:28.907Z,96.96
2022-11-29T19:08:58.431Z,96.99
2022-11-29T19:11:27.607Z,96.90
2022-11-29T19:13:57.506Z,96.77
2022-11-29T19:16:25.317Z,97.17
2022-11-29T19:18:53.724Z,97.05
2022-11-29T19:21:22.327Z,96.83
2022-11-29T19:23:53.776Z,96.74
2022-11-29T19:26:21.540Z,96.90
2022-11-29T19:28:48.404Z,96.88
2022-11-29T19:31:16.935Z,96.66
2022-11-29T19:33:45.024Z,96.94
2022-11-29T19:36:23.176Z,97.04
2022-11-29T19:38:53.719Z,97.18
2022-11-29T19:41:26.565Z,97.14
2022-11-29T19:43:53.883Z,97.33
2022-11-29T19:46:22.694Z,97.18
2022-11-29T19:48:51.379Z,96.95
2022-11-29T19:51:17.991Z,96.81
2022-11-29T19:53:45.863Z,97.27
2022-11-29T19:56:14.808Z,97.59
2022-11-29T19:58:41.571Z,97.36
2022-11-29T20:01:16.651Z,97.25
2022-11-29T20:03:43.541Z,97.40
2022-11-29T20:06:10.238Z,97.23
2022-11-29T20:08:37.672Z,97.11
2022-11-29T20:11:08.837Z,97.08
2022-11-29T20:13:36.183Z,97.19
2022-11-29T20:16:11.641Z,97.42
2022-11-29T20:18:41.812Z,97.45
2022-11-29T20:21:15.373Z,97.79
2022-11-29T20:23:42.323Z,97.74
2022-11-29T20:26:17.876Z,97.43
2022-11-29T20:28:45.227Z,97.36
2022-11-29T20:31:18.209Z,97.80
2022-11-29T20:33:46.321Z,97.83
2022-11-29T20:36:18.635Z,97.44
2022-11-29T20:39:00.155Z,97.56
2022-11-29T20:41:48.787Z,97.34
2022-11-29T20:44:20.457Z,97.69
2022-11-29T20:46:47.274Z,97.90
2022-11-29T20:49:15.189Z,98.07
2022-11-29T20:51:49.504Z,97.96
2022-11-29T20:54:19.083Z,97.98
2022-11-29T20:56:45.616Z,97.84
2022-11-29T20:59:12.078Z,97.60
2022-11-29T21:01:38.574Z,97.74
2022-11-29T21:04:05.024Z,97.71
2022-11-29T21:06:34.303Z,97.83
2022-11-29T21:09:00.714Z,98.27
2022-11-29T21:11:27.140Z,98.33
2022-11-29T21:13:53.836Z,97.82
2022-11-29T21:16:27.620Z,97.75
2022-11-29T21:18:58.796Z,97.75
2022-11-29T21:21:42.677Z,97.54
2022-11-29T21:24:36.031Z,97.52
2022-11-29T21:27:03.559Z,97.12
2022-11-29T21:29:30.348Z,97.46
2022-11-29T21:31:57.014Z,97.35
2022-11-29T21:34:23.479Z,97.53
2022-11-29T21:36:58.317Z,97.76
2022-11-29T21:39:33.188Z,97.81
2022-11-29T21:41:59.683Z,97.95
2022-11-29T21:44:26.157Z,98.42
2022-11-29T21:46:52.667Z,97.81
2022-11-29T21:49:19.184Z,97.48
2022-11-29T21:51:45.539Z,97.33
2022-11-29T21:54:11.949Z,97.55
2022-11-29T21:56:41.291Z,96.92
2022-11-29T21:59:07.701Z,97.23
2022-11-29T22:01:34.285Z,97.56
2022-11-29T22:04:01.087Z,97.66
2022-11-29T22:06:29.202Z,97.48
2022-11-29T22:08:55.749Z,97.17
2022-11-29T22:11:33.996Z,97.62
2022-11-29T22:14:18.787Z,97.44
2022-11-29T22:16:47.045Z,97.83
2022-11-29T22:19:16.322Z,97.62
2022-11-29T22:21:44.780Z,97.81
2022-11-29T22:24:13.722Z,97.34
2022-11-29T22:26:41.113Z,97.38
2022-11-29T22:29:07.567Z,97.15
2022-11-29T22:31:35.674Z,96.91
2022-11-29T22:34:02.200Z,96.83
2022-11-29T22:36:28.648Z,97.34
2022-11-29T22:38:55.129Z,97.09
2022-11-29T22:41:21.534Z,97.40
2022-11-29T22:43:48.011Z,97.67
2022-11-29T22:46:20.206Z,97.38
2022-11-29T22:48:49.139Z,97.57
2022-11-29T22:51:18.311Z,97.53
2022-11-29T22:53:55.539Z,97.61
2022-11-29T22:56:23.787Z,97.54
2022-11-29T22:58:50.417Z,97.38
2022-11-29T23:01:19.240Z,97.61
2022-11-29T23:03:54.420Z,97.35
2022-11-29T23:06:22.069Z,97.98
2022-11-29T23:08:49.814Z,97.99
2022-11-29T23:11:21.878Z,98.21
2022-11-29T23:13:48.525Z,98.08
2022-11-29T23:16:17.525Z,98.18
2022-11-29T23:18:45.570Z,97.84
2022-11-29T23:21:21.030Z,98.09
2022-11-29T23:23:54.504Z,98.26
2022-11-29T23:26:24.076Z,98.27
2022-11-29T23:28:51.121Z,98.20
2022-11-29T23:31:17.789Z,98.47
2022-11-29T23:33:44.454Z,98.51
2022-11-29T23:36:12.620Z,98.38
2022-11-29T23:38:39.860Z,98.47
2022-11-29T23:41:07.587Z,98.60
2022-11-29T23:43:36.770Z,98.42
2022-11-29T23:46:21.193Z,98.20
2022-11-29T23:48:48.396Z,98.36
2022-11-29T23:51:15.733Z,98.34
2022-11-29T23:53:42.494Z,98.46
2022-11-29T23:56:14.593Z,98.64
2022-11-29T23:58:42.226Z,98.56
